Time;durP1;ratioP1;P1;durP2;ratioP2;P2;SDS_P1;SDS_P2;PMS_P1;PMS_P2;Temp;Humidity;BMP_temperature;BMP_pressure;BME280_temperature;BME280_humidity;BME280_pressure;Samples;Min_cycle;Max_cycle;Signal;HPM_P1;HPM_P2
2022/05/06 00:00:18;;;;;;;;;;;;;;;13.01;55.61;100916.28;85706;1339;23221;-79
2022/05/06 00:02:41;;;;;;;;;;;;;;;13.03;55.81;100914.46;85705;1337;22450;-79
2022/05/06 00:04:45;;;;;;;;;;;;;;;13.04;56.07;100913.17;85704;1335;23424;-79
2022/05/06 00:06:50;;;;;;;;;;;;;;;13.03;56.40;100913.02;85563;1338;22555;-79
2022/05/06 00:08:58;;;;;;;;;;;;;;;13.05;56.42;100911.75;85691;1336;22499;-79
2022/05/06 00:11:02;;;;;;;;;;;;;;;13.07;56.44;100912.70;85705;1336;22520;-79
2022/05/06 00:13:07;;;;;;;;;;;;;;;13.09;56.12;100910.16;85557;1338;23233;-79
2022/05/06 00:15:12;;;;;;;;;;;;;;;13.10;56.66;100909.95;85716;1340;22565;-79
2022/05/06 00:17:16;;;;;;;;;;;;;;;13.10;56.76;100909.79;85696;1336;22505;-75
2022/05/06 00:19:21;;;;;;;;;;;;;;;13.10;56.71;100909.42;85698;1340;22698;-76
2022/05/06 00:21:29;;;;;;;;;;;;;;;13.10;56.85;100902.94;85700;1339;22573;-76
2022/05/06 00:23:36;;;;;;;;;;;;;;;13.10;57.16;100905.75;85705;1335;22479;-79
2022/05/06 00:25:41;;;;;;;;;;;;;;;13.09;57.38;100902.79;85702;1336;22482;-79
2022/05/06 00:27:45;;;;;;;;;;;;;;;13.09;57.33;100904.22;85558;1336;23075;-79
2022/05/06 00:29:53;;;;;;;;;;;;;;;13.09;57.36;100901.06;85560;1336;22548;-79
2022/05/06 00:31:57;;;;;;;;;;;;;;;13.10;57.61;100906.81;85563;1336;22550;-79
2022/05/06 00:34:02;;;;;;;;;;;;;;;13.10;57.63;100905.76;85703;1333;22464;-76
2022/05/06 00:36:09;;;;;;;;;;;;;;;13.10;57.83;100902.07;85687;1336;22495;-76
2022/05/06 00:38:14;;;;;;;;;;;;;;;13.10;57.97;100901.02;85561;1339;23261;-76
2022/05/06 00:40:21;;;;;;;;;;;;;;;13.11;58.13;100899.79;85535;1337;23191;-76
2022/05/06 00:42:26;;;;;;;;;;;;;;;13.11;58.13;100901.16;85562;1336;22603;-76
2022/05/06 00:44:30;;;;;;;;;;;;;;;13.10;58.28;100901.20;85560;1336;22617;-76
2022/05/06 00:46:37;;;;;;;;;;;;;;;13.10;58.52;100898.76;85558;1336;22666;-76
2022/05/06 00:48:46;;;;;;;;;;;;;;;13.08;58.70;100900.75;85706;1336;23029;-76
2022/05/06 00:50:51;;;;;;;;;;;;;;;13.05;59.06;100900.70;85705;1335;22450;-76
2022/05/06 00:52:56;;;;;;;;;;;;;;;13.03;58.85;100897.48;85707;1336;23267;-76
2022/05/06 00:55:00;;;;;;;;;;;;;;;13.03;59.01;100897.12;85709;1336;22507;-76
2022/05/06 00:57:06;;;;;;;;;;;;;;;13.02;58.99;100895.59;85719;1337;23311;-76
2022/05/06 00:59:11;;;;;;;;;;;;;;;13.01;59.02;100897.90;85707;1336;22506;-79
2022/05/06 01:01:16;;;;;;;;;;;;;;;13.00;59.21;100897.89;85562;1333;22493;-79
2022/05/06 01:03:21;;;;;;;;;;;;;;;13.00;59.34;100900.73;85703;1336;22563;-76
2022/05/06 01:05:25;;;;;;;;;;;;;;;12.99;59.33;100904.94;85705;1335;23190;-76
2022/05/06 01:07:30;;;;;;;;;;;;;;;13.00;59.38;100907.17;85571;1336;22673;-78
2022/05/06 01:09:36;;;;;;;;;;;;;;;12.99;59.99;100905.83;85661;1336;22505;-79
2022/05/06 01:11:44;;;;;;;;;;;;;;;12.99;59.63;100906.38;85700;1335;22489;-79
2022/05/06 01:13:53;;;;;;;;;;;;;;;12.99;59.64;100907.23;85682;1340;22504;-79
2022/05/06 01:15:58;;;;;;;;;;;;;;;12.99;59.70;100908.27;85742;1337;22501;-80
2022/05/06 01:18:04;;;;;;;;;;;;;;;13.00;59.97;100912.63;85774;1335;22467;-76
2022/05/06 01:20:11;;;;;;;;;;;;;;;13.00;59.97;100911.73;85686;1340;23266;-76
2022/05/06 01:22:19;;;;;;;;;;;;;;;13.00;59.92;100918.40;85537;1338;22624;-79
2022/05/06 01:24:24;;;;;;;;;;;;;;;13.00;60.14;100915.96;85650;1340;23202;-79
2022/05/06 01:26:53;;;;;;;;;;;;;;;13.00;60.58;100916.66;85518;1338;23229;-79
2022/05/06 01:28:57;;;;;;;;;;;;;;;12.97;60.54;100918.36;85748;1338;23181;-79
2022/05/06 01:31:02;;;;;;;;;;;;;;;12.96;60.46;100915.79;85756;1333;22587;-80
2022/05/06 01:33:11;;;;;;;;;;;;;;;12.95;60.67;100917.05;85758;1335;22627;-75
2022/05/06 01:35:16;;;;;;;;;;;;;;;12.92;61.03;100916.45;85523;1339;22514;-76
2022/05/06 01:37:21;;;;;;;;;;;;;;;12.89;61.18;100915.48;85753;1336;23195;-80
2022/05/06 01:39:30;;;;;;;;;;;;;;;12.88;61.16;100916.42;85765;1337;23178;-80
2022/05/06 01:41:38;;;;;;;;;;;;;;;12.85;61.12;100914.95;85679;1339;23136;-80
2022/05/06 01:43:50;;;;;;;;;;;;;;;12.85;61.39;100913.05;85648;1339;23175;-79
2022/05/06 01:45:56;;;;;;;;;;;;;;;12.84;61.46;100910.44;85764;1336;23173;-80
2022/05/06 01:48:01;;;;;;;;;;;;;;;12.85;61.41;100908.48;85782;1335;22568;-80
2022/05/06 01:50:07;;;;;;;;;;;;;;;12.86;61.79;100911.43;85785;1336;22466;-80
2022/05/06 01:52:12;;;;;;;;;;;;;;;12.87;61.64;100914.36;85571;1340;22496;-79
2022/05/06 01:54:20;;;;;;;;;;;;;;;12.88;61.61;100914.13;85772;1336;22563;-79
2022/05/06 01:56:25;;;;;;;;;;;;;;;12.88;61.76;100916.75;85743;1336;23098;-79
2022/05/06 01:58:29;;;;;;;;;;;;;;;12.89;61.71;100920.41;85752;1338;23301;-80
2022/05/06 02:00:35;;;;;;;;;;;;;;;12.90;61.57;100919.84;85740;1336;22459;-79
2022/05/06 02:02:40;;;;;;;;;;;;;;;12.89;61.78;100918.47;85737;1336;23203;-79
2022/05/06 02:07:07;;;;;;;;;;;;;;;12.90;62.26;100925.42;85612;1336;23077;-76
2022/05/06 02:09:12;;;;;;;;;;;;;;;12.90;62.03;100926.30;85747;1335;22527;-76
2022/05/06 02:11:16;;;;;;;;;;;;;;;12.90;62.03;100929.27;85742;1336;22553;-76
2022/05/06 02:13:21;;;;;;;;;;;;;;;12.90;62.04;100926.84;85529;1338;22490;-79
2022/05/06 02:15:25;;;;;;;;;;;;;;;12.90;62.47;100929.65;85645;1339;22667;-79
2022/05/06 02:17:33;;;;;;;;;;;;;;;12.89;62.36;100929.67;85731;1335;22657;-79
2022/05/06 02:19:38;;;;;;;;;;;;;;;12.90;62.52;100931.05;85527;1338;23153;-80
2022/05/06 02:21:42;;;;;;;;;;;;;;;12.90;62.59;100929.46;85591;1337;23151;-79
2022/05/06 02:23:47;;;;;;;;;;;;;;;12.89;62.80;100927.94;85729;1336;22501;-80
2022/05/06 02:25:51;;;;;;;;;;;;;;;12.88;62.72;100926.55;85735;1338;22438;-79
2022/05/06 02:28:00;;;;;;;;;;;;;;;12.88;62.95;100926.21;85760;1338;23155;-75
2022/05/06 02:34:53;;;;;;;;;;;;;;;12.86;63.41;100923.50;85726;1336;22507;-76
2022/05/06 02:36:58;;;;;;;;;;;;;;;12.88;63.49;100923.27;85628;1336;22557;-75
2022/05/06 02:39:03;;;;;;;;;;;;;;;12.88;63.34;100923.10;85524;1338;23151;-76
2022/05/06 02:41:08;;;;;;;;;;;;;;;12.88;63.57;100923.80;85641;1336;22502;-77
2022/05/06 02:43:13;;;;;;;;;;;;;;;12.89;63.71;100926.72;85649;1336;22511;-79
2022/05/06 02:45:17;;;;;;;;;;;;;;;12.89;63.87;100925.31;85623;1336;22603;-79
2022/05/06 02:47:22;;;;;;;;;;;;;;;12.87;63.64;100926.77;85630;1336;23040;-79
2022/05/06 02:49:27;;;;;;;;;;;;;;;12.86;63.83;100931.22;85626;1339;22510;-80
2022/05/06 02:51:34;;;;;;;;;;;;;;;12.84;64.08;100930.08;85648;1338;22506;-80
2022/05/06 02:53:39;;;;;;;;;;;;;;;12.82;64.21;100931.38;85645;1336;22543;-80
2022/05/06 02:55:43;;;;;;;;;;;;;;;12.81;64.24;100932.80;85564;1338;22500;-79
2022/05/06 02:57:48;;;;;;;;;;;;;;;12.80;64.14;100932.81;85678;1332;23080;-79
2022/05/06 02:59:52;;;;;;;;;;;;;;;12.80;64.05;100927.93;85671;1336;23006;-79
2022/05/06 03:01:57;;;;;;;;;;;;;;;12.81;64.16;100931.05;85675;1338;22607;-80
2022/05/06 03:04:01;;;;;;;;;;;;;;;12.82;64.28;100935.39;85673;1339;22491;-76
2022/05/06 03:06:06;;;;;;;;;;;;;;;12.84;64.46;100935.83;85660;1339;23219;-76
2022/05/06 03:08:11;;;;;;;;;;;;;;;12.85;64.45;100938.59;85673;1337;22498;-80
2022/05/06 03:10:18;;;;;;;;;;;;;;;12.85;64.56;100938.23;85667;1339;23129;-79
2022/05/06 03:12:26;;;;;;;;;;;;;;;12.85;64.47;100937.19;85651;1323;23266;-80
2022/05/06 03:14:31;;;;;;;;;;;;;;;12.84;64.70;100936.89;85679;1336;22471;-80
2022/05/06 03:16:36;;;;;;;;;;;;;;;12.82;64.82;100937.67;85687;1336;23214;-80
2022/05/06 03:18:43;;;;;;;;;;;;;;;12.80;64.85;100936.31;85618;1337;22459;-77
2022/05/06 03:20:49;;;;;;;;;;;;;;;12.80;65.14;100934.40;85408;1338;23070;-76
2022/05/06 03:22:56;;;;;;;;;;;;;;;12.79;65.16;100938.81;85598;1337;23293;-79
2022/05/06 03:25:01;;;;;;;;;;;;;;;12.79;65.10;100941.46;85582;1339;22520;-80
2022/05/06 03:27:59;;;;;;;;;;;;;;;12.79;65.23;100948.11;85586;1337;22481;-80
2022/05/06 03:29:33;;;;;;;;;;;;;;;12.79;65.56;100951.27;85601;1339;22606;-80
2022/05/06 03:31:37;;;;;;;;;;;;;;;12.77;65.56;100953.44;85594;1336;23054;-79
2022/05/06 03:33:42;;;;;;;;;;;;;;;12.77;65.78;100956.79;85592;1337;22580;-79
2022/05/06 03:35:50;;;;;;;;;;;;;;;12.75;65.99;100961.21;85589;1337;23155;-80
2022/05/06 03:37:55;;;;;;;;;;;;;;;12.73;66.23;100963.20;85598;1339;23255;-76
2022/05/06 03:39:59;;;;;;;;;;;;;;;12.72;66.16;100964.14;85567;1339;23229;-76
2022/05/06 03:42:05;;;;;;;;;;;;;;;12.72;66.22;100964.16;85585;1337;23251;-76
2022/05/06 03:44:13;;;;;;;;;;;;;;;12.72;66.20;100968.00;85593;1337;23128;-76
2022/05/06 03:46:18;;;;;;;;;;;;;;;12.72;66.43;100970.60;85568;1338;22573;-76
2022/05/06 03:48:25;;;;;;;;;;;;;;;12.73;66.57;100968.84;85601;1336;23135;-76
2022/05/06 03:52:52;;;;;;;;;;;;;;;12.74;66.51;100969.13;85589;1336;23057;-77
2022/05/06 03:54:57;;;;;;;;;;;;;;;12.76;66.57;100973.61;85583;1336;23208;-76
2022/05/06 03:57:02;;;;;;;;;;;;;;;12.80;66.70;100975.41;85589;1336;22532;-77
2022/05/06 03:59:07;;;;;;;;;;;;;;;12.82;66.96;100975.67;85610;1336;22491;-75
2022/05/06 04:01:12;;;;;;;;;;;;;;;12.83;67.01;100980.52;85582;1336;23150;-76
2022/05/06 04:03:17;;;;;;;;;;;;;;;12.84;67.01;100978.53;85581;1338;23120;-80
2022/05/06 04:05:21;;;;;;;;;;;;;;;12.87;66.95;100980.55;85586;1339;22501;-80
2022/05/06 04:07:26;;;;;;;;;;;;;;;12.89;66.84;100981.33;85548;1338;22535;-80
2022/05/06 04:09:34;;;;;;;;;;;;;;;12.92;66.91;100986.86;85563;1338;22579;-79
2022/05/06 04:11:39;;;;;;;;;;;;;;;12.94;66.98;100986.60;85602;1339;22534;-79
2022/05/06 04:13:43;;;;;;;;;;;;;;;12.96;66.89;100991.42;85565;1336;22533;-80
2022/05/06 04:15:48;;;;;;;;;;;;;;;12.98;66.83;100993.29;85602;1336;22479;-80
2022/05/06 04:17:53;;;;;;;;;;;;;;;13.00;66.96;100990.20;85587;1339;23232;-80
2022/05/06 04:24:51;;;;;;;;;;;;;;;13.04;67.09;100994.29;85584;1341;23307;-75
2022/05/06 04:26:55;;;;;;;;;;;;;;;13.04;67.08;100994.95;85564;1339;22574;-75
2022/05/06 04:29:00;;;;;;;;;;;;;;;13.07;67.12;100993.12;85572;1336;22488;-80
2022/05/06 04:31:06;;;;;;;;;;;;;;;13.10;67.04;100996.69;85581;1336;22586;-81
2022/05/06 04:33:10;;;;;;;;;;;;;;;13.13;67.09;101003.02;85444;1342;23164;-81
2022/05/06 04:35:18;;;;;;;;;;;;;;;13.16;67.04;101005.03;85577;1338;22598;-80
2022/05/06 04:37:23;;;;;;;;;;;;;;;13.18;66.86;101003.89;85561;1336;23208;-75
2022/05/06 04:39:28;;;;;;;;;;;;;;;13.21;66.96;101005.36;85564;1339;22986;-75
2022/05/06 04:41:32;;;;;;;;;;;;;;;13.24;66.79;101003.86;85584;1339;23303;-76
2022/05/06 04:43:37;;;;;;;;;;;;;;;13.29;66.74;101007.54;85572;1337;23157;-75
2022/05/06 04:45:42;;;;;;;;;;;;;;;13.32;66.83;101008.61;85568;1339;23240;-75
2022/05/06 04:47:46;;;;;;;;;;;;;;;13.37;66.75;101010.17;85573;1339;23308;-80
2022/05/06 04:49:51;;;;;;;;;;;;;;;13.42;66.63;101015.77;85572;1336;22586;-80
2022/05/06 04:51:56;;;;;;;;;;;;;;;13.48;66.87;101017.33;85567;1335;23121;-80
2022/05/06 04:54:07;;;;;;;;;;;;;;;13.52;66.61;101019.79;85562;1336;23178;-75
2022/05/06 04:56:11;;;;;;;;;;;;;;;13.56;66.68;101023.99;85564;1336;22566;-76
2022/05/06 04:58:16;;;;;;;;;;;;;;;13.59;66.62;101025.27;85554;1336;22571;-75
2022/05/06 05:00:24;;;;;;;;;;;;;;;13.65;66.53;101024.65;85564;1336;22457;-75
2022/05/06 05:02:29;;;;;;;;;;;;;;;13.71;66.34;101027.42;85574;1340;23065;-75
2022/05/06 05:04:33;;;;;;;;;;;;;;;13.77;66.29;101025.05;85349;1336;303872;-75
2022/05/06 05:06:38;;;;;;;;;;;;;;;13.86;66.02;101024.17;85569;1338;22556;-76
2022/05/06 05:08:42;;;;;;;;;;;;;;;13.95;65.98;101020.62;85566;1336;23233;-81
2022/05/06 05:10:50;;;;;;;;;;;;;;;14.03;65.84;101021.70;85575;1336;22586;-86
2022/05/06 05:12:55;;;;;;;;;;;;;;;14.12;65.55;101024.13;85575;1339;22500;-76
2022/05/06 05:15:00;;;;;;;;;;;;;;;14.22;65.53;101027.73;85574;1336;23100;-77
2022/05/06 05:17:06;;;;;;;;;;;;;;;14.32;65.25;101029.44;85434;1339;22541;-81
2022/05/06 05:19:11;;;;;;;;;;;;;;;14.40;64.90;101030.14;85581;1339;22631;-83
2022/05/06 05:21:16;;;;;;;;;;;;;;;14.44;64.69;101032.77;85582;1336;22457;-85
2022/05/06 05:23:25;;;;;;;;;;;;;;;14.48;64.48;101031.36;85585;1340;22447;-83
2022/05/06 05:25:30;;;;;;;;;;;;;;;14.53;64.50;101030.11;85421;1339;23189;-80
2022/05/06 05:27:36;;;;;;;;;;;;;;;14.60;64.50;101034.90;85568;1339;23046;-76
2022/05/06 05:29:41;;;;;;;;;;;;;;;14.65;64.19;101039.42;85567;1336;22605;-76
2022/05/06 05:31:45;;;;;;;;;;;;;;;14.72;63.92;101045.27;85425;1339;23136;-76
2022/05/06 05:33:53;;;;;;;;;;;;;;;14.79;63.80;101046.70;85571;1340;22487;-76
2022/05/06 05:35:59;;;;;;;;;;;;;;;14.85;63.69;101049.95;85583;1336;23137;-76
2022/05/06 05:38:06;;;;;;;;;;;;;;;14.94;63.52;101051.11;85578;1336;22581;-80
2022/05/06 05:40:13;;;;;;;;;;;;;;;15.02;63.12;101045.99;85440;1339;22468;-80
2022/05/06 05:42:21;;;;;;;;;;;;;;;15.08;62.73;101051.36;85590;1336;22446;-80
2022/05/06 05:49:11;;;;;;;;;;;;;;;15.17;61.97;101058.15;85576;1338;22504;-80
2022/05/06 05:51:19;;;;;;;;;;;;;;;15.20;61.85;101059.41;85580;1336;23113;-80
2022/05/06 05:53:26;;;;;;;;;;;;;;;15.25;61.62;101059.88;85577;1336;23033;-76
2022/05/06 05:55:31;;;;;;;;;;;;;;;15.28;61.42;101064.70;85587;1336;22496;-76
2022/05/06 05:57:36;;;;;;;;;;;;;;;15.34;61.26;101062.31;85578;1340;22523;-76
2022/05/06 05:59:41;;;;;;;;;;;;;;;15.36;60.99;101062.68;85573;1336;22506;-76
2022/05/06 06:01:48;;;;;;;;;;;;;;;15.38;60.72;101064.02;85587;1336;23154;-75
2022/05/06 06:03:53;;;;;;;;;;;;;;;15.44;60.73;101068.48;85440;1342;22501;-75
2022/05/06 06:05:58;;;;;;;;;;;;;;;15.52;60.38;101069.02;85590;1336;22442;-76
2022/05/06 06:08:07;;;;;;;;;;;;;;;15.58;60.21;101069.23;85444;1338;22513;-75
2022/05/06 06:10:12;;;;;;;;;;;;;;;15.64;59.91;101067.02;85580;1336;22466;-76
2022/05/06 06:12:18;;;;;;;;;;;;;;;15.66;59.52;101059.38;85439;1338;23186;-75
2022/05/06 06:14:23;;;;;;;;;;;;;;;15.65;59.25;101058.55;85583;1339;22430;-76
2022/05/06 06:16:31;;;;;;;;;;;;;;;15.63;59.05;101060.56;85575;1336;22540;-75
2022/05/06 06:18:37;;;;;;;;;;;;;;;15.62;58.88;101061.67;85589;1336;22451;-76
2022/05/06 06:20:41;;;;;;;;;;;;;;;15.57;58.70;101065.79;85548;1337;22463;-76
2022/05/06 06:22:47;;;;;;;;;;;;;;;15.52;58.66;101075.35;85585;1338;22439;-75
2022/05/06 06:24:55;;;;;;;;;;;;;;;15.47;58.63;101073.98;85572;1336;22991;-76
2022/05/06 06:27:06;;;;;;;;;;;;;;;15.45;58.68;101076.02;85528;1339;22598;-78
2022/05/06 06:29:11;;;;;;;;;;;;;;;15.40;58.71;101076.40;85573;1334;22518;-79
2022/05/06 06:31:19;;;;;;;;;;;;;;;15.36;58.93;101076.61;85521;1337;23215;-79
2022/05/06 06:33:24;;;;;;;;;;;;;;;15.30;59.01;101080.56;85589;1340;22509;-76
2022/05/06 06:46:28;;;;;;;;;;;;;;;15.17;59.25;101092.05;84451;1350;22909;-80
2022/05/06 06:48:35;;;;;;;;;;;;;;;15.15;59.26;101093.02;84866;1344;22504;-75
2022/05/06 06:50:43;;;;;;;;;;;;;;;15.16;59.38;101090.91;84925;1344;22671;-76
2022/05/06 06:52:48;;;;;;;;;;;;;;;15.16;59.59;101093.52;85055;1339;23414;-76
2022/05/06 06:54:57;;;;;;;;;;;;;;;15.16;59.60;101091.42;85321;1339;23258;-76
2022/05/06 06:57:05;;;;;;;;;;;;;;;15.16;59.68;101091.43;85197;1343;22523;-77
2022/05/06 06:59:15;;;;;;;;;;;;;;;15.17;59.68;101093.31;85314;1340;23263;-78
2022/05/06 07:01:21;;;;;;;;;;;;;;;15.18;59.71;101092.23;85303;1342;22495;-79
2022/05/06 07:03:25;;;;;;;;;;;;;;;15.20;59.61;101093.70;85322;1342;22489;-75
2022/05/06 07:05:30;;;;;;;;;;;;;;;15.24;59.64;101089.64;85281;1342;23047;-75
2022/05/06 07:12:21;;;;;;;;;;;;;;;15.41;59.68;101098.17;85173;1343;22513;-75
2022/05/06 07:14:28;;;;;;;;;;;;;;;15.43;59.69;101101.79;85309;1339;22500;-75
2022/05/06 07:16:33;;;;;;;;;;;;;;;15.48;59.87;101097.30;85306;1343;22659;-74
2022/05/06 07:18:38;;;;;;;;;;;;;;;15.57;59.82;101099.02;85308;1344;22602;-80
2022/05/06 07:20:47;;;;;;;;;;;;;;;15.70;59.78;101102.29;85317;1340;22476;-81
2022/05/06 07:22:53;;;;;;;;;;;;;;;15.85;59.82;101100.66;85297;1342;23355;-77
2022/05/06 07:24:57;;;;;;;;;;;;;;;16.04;59.86;101100.29;85541;1339;22524;-79
2022/05/06 07:27:06;;;;;;;;;;;;;;;16.39;60.09;101096.98;85603;1339;22564;-77
2022/05/06 07:29:13;;;;;;;;;;;;;;;16.89;59.99;101098.11;85583;1336;22544;-79
2022/05/06 07:31:21;;;;;;;;;;;;;;;17.44;59.11;101101.49;85575;1337;22573;-79
2022/05/06 07:33:25;;;;;;;;;;;;;;;17.92;58.23;101100.61;85592;1338;23192;-79
2022/05/06 07:35:33;;;;;;;;;;;;;;;18.35;57.30;101097.05;85305;1339;22669;-80
2022/05/06 07:37:38;;;;;;;;;;;;;;;18.96;56.34;101096.41;85551;1338;22510;-76
2022/05/06 07:39:43;;;;;;;;;;;;;;;19.78;56.43;101096.51;85571;1338;23202;-80
2022/05/06 07:41:47;;;;;;;;;;;;;;;21.04;55.00;101097.27;85556;1339;22527;-75
2022/05/06 07:43:52;;;;;;;;;;;;;;;22.07;52.15;101096.79;85595;1333;22484;-76
2022/05/06 07:45:58;;;;;;;;;;;;;;;22.66;49.71;101098.15;85444;1339;22705;-76
2022/05/06 07:48:06;;;;;;;;;;;;;;;23.15;47.72;101097.54;85545;1337;23268;-81
2022/05/06 07:50:13;;;;;;;;;;;;;;;23.78;46.03;101099.92;85572;1339;23097;-81
2022/05/06 07:52:18;;;;;;;;;;;;;;;24.53;45.30;101097.38;85365;1342;22496;-84
2022/05/06 07:54:26;;;;;;;;;;;;;;;25.47;43.58;101095.19;85594;1336;23158;-80
2022/05/06 07:56:33;;;;;;;;;;;;;;;26.24;41.54;101098.00;85297;1342;22551;-84
2022/05/06 07:58:39;;;;;;;;;;;;;;;26.60;39.26;101103.47;85601;1339;22494;-80
2022/05/06 08:00:44;;;;;;;;;;;;;;;26.55;38.45;101103.21;85576;1340;22455;-80
2022/05/06 08:05:11;;;;;;;;;;;;;;;25.84;37.87;101101.85;85568;1339;22501;-77
2022/05/06 08:07:16;;;;;;;;;;;;;;;25.63;38.21;101101.61;85539;1338;23264;-83
2022/05/06 08:09:22;;;;;;;;;;;;;;;25.50;38.56;101107.39;85580;1336;22484;-82
2022/05/06 08:11:27;;;;;;;;;;;;;;;25.40;38.52;101109.70;85570;1339;23208;-83
2022/05/06 08:13:32;;;;;;;;;;;;;;;25.34;38.66;101104.55;85578;1336;22485;-76
2022/05/06 08:15:39;;;;;;;;;;;;;;;25.19;38.86;101107.83;85577;1339;23281;-76
2022/05/06 08:17:44;;;;;;;;;;;;;;;25.17;38.78;101106.23;85461;1342;23194;-81
2022/05/06 08:19:49;;;;;;;;;;;;;;;25.44;39.00;101102.21;85571;1336;22533;-79
2022/05/06 08:21:53;;;;;;;;;;;;;;;26.04;38.60;101103.11;85439;1339;23198;-79
2022/05/06 08:24:01;;;;;;;;;;;;;;;26.64;37.85;101103.26;85578;1339;22518;-75
2022/05/06 08:26:06;;;;;;;;;;;;;;;27.43;37.56;101103.70;85584;1341;22392;-77
2022/05/06 08:28:13;;;;;;;;;;;;;;;28.26;36.18;101093.65;85590;1336;22490;-80
2022/05/06 08:30:18;;;;;;;;;;;;;;;28.84;35.11;101099.43;85558;1339;22486;-80
2022/05/06 08:32:22;;;;;;;;;;;;;;;28.83;33.66;101099.33;85576;1336;22454;-80
2022/05/06 08:34:27;;;;;;;;;;;;;;;28.59;33.46;101096.79;85572;1337;23006;-80
2022/05/06 08:36:32;;;;;;;;;;;;;;;28.50;33.61;101098.33;85582;1337;22528;-80
2022/05/06 08:38:36;;;;;;;;;;;;;;;28.39;32.67;101093.84;85586;1338;23149;-77
2022/05/06 08:40:41;;;;;;;;;;;;;;;28.00;32.70;101099.33;85572;1336;23033;-76
2022/05/06 08:42:46;;;;;;;;;;;;;;;27.52;33.10;101102.83;85580;1336;22479;-81
2022/05/06 08:52:06;;;;;;;;;;;;;;;28.30;34.27;101096.68;85558;1341;23032;-77
2022/05/06 08:54:11;;;;;;;;;;;;;;;28.94;33.44;101097.38;85586;1335;22505;-76
2022/05/06 08:56:17;;;;;;;;;;;;;;;29.54;32.33;101097.05;85417;1341;22519;-76
2022/05/06 08:58:26;;;;;;;;;;;;;;;30.22;31.66;101093.86;85579;1339;22487;-82
2022/05/06 09:00:31;;;;;;;;;;;;;;;30.83;30.40;101096.86;85568;1336;23215;-81
2022/05/06 09:02:40;;;;;;;;;;;;;;;31.24;29.51;101101.38;85593;1336;22495;-81
2022/05/06 09:04:45;;;;;;;;;;;;;;;31.51;29.29;101098.65;85575;1336;22519;-81
2022/05/06 09:06:55;;;;;;;;;;;;;;;31.81;28.40;101096.30;85577;1336;22496;-82
2022/05/06 09:09:00;;;;;;;;;;;;;;;31.95;28.10;101095.23;85593;1341;23194;-81
2022/05/06 09:11:08;;;;;;;;;;;;;;;31.78;27.61;101091.20;85581;1341;22471;-81
2022/05/06 09:13:16;;;;;;;;;;;;;;;31.42;27.77;101099.48;85569;1341;23233;-77
2022/05/06 09:17:51;;;;;;;;;;;;;;;31.14;28.91;101096.42;85593;1341;23207;-78
2022/05/06 09:20:00;;;;;;;;;;;;;;;31.36;29.47;101102.30;85580;1336;23131;-79
2022/05/06 09:22:06;;;;;;;;;;;;;;;31.63;29.11;101097.30;85581;1339;22501;-81
2022/05/06 09:24:18;;;;;;;;;;;;;;;31.47;28.27;101097.70;85599;1341;23164;-80
2022/05/06 09:26:27;;;;;;;;;;;;;;;31.18;28.61;101101.17;85587;1338;23025;-79
2022/05/06 09:28:35;;;;;;;;;;;;;;;31.05;28.75;101099.20;85438;1339;22460;-79
2022/05/06 09:30:47;;;;;;;;;;;;;;;30.75;28.70;101097.24;85542;1336;23232;-75
2022/05/06 09:32:54;;;;;;;;;;;;;;;30.25;29.25;101096.94;85592;1336;23031;-80
2022/05/06 09:35:12;;;;;;;;;;;;;;;29.86;29.26;101096.67;85524;1338;22563;-81
2022/05/06 09:37:38;;;;;;;;;;;;;;;29.30;29.30;101100.40;85569;1339;23259;-76
2022/05/06 09:39:43;;;;;;;;;;;;;;;28.62;30.24;101097.00;85581;1339;23081;-76
2022/05/06 09:41:48;;;;;;;;;;;;;;;28.14;30.91;101095.79;85564;1341;22509;-76
2022/05/06 09:44:00;;;;;;;;;;;;;;;27.74;31.56;101101.20;85442;1339;22519;-81
2022/05/06 09:46:20;;;;;;;;;;;;;;;27.48;32.33;101102.58;85590;1337;22532;-81
2022/05/06 09:48:28;;;;;;;;;;;;;;;27.60;32.75;101098.69;85574;1335;22472;-80
2022/05/06 09:50:33;;;;;;;;;;;;;;;27.69;32.69;101092.40;85413;1342;23193;-81
2022/05/06 09:52:37;;;;;;;;;;;;;;;27.76;32.57;101092.46;85567;1336;22462;-80
2022/05/06 09:54:46;;;;;;;;;;;;;;;27.71;32.38;101094.13;85558;1341;23342;-80
2022/05/06 09:56:51;;;;;;;;;;;;;;;27.47;31.80;101094.96;85575;1337;23296;-77
2022/05/06 09:58:58;;;;;;;;;;;;;;;27.15;32.23;101096.39;85560;1339;23153;-76
2022/05/06 10:01:03;;;;;;;;;;;;;;;27.11;32.56;101097.55;85571;1339;23297;-76
2022/05/06 10:03:11;;;;;;;;;;;;;;;27.02;33.03;101098.88;85330;1340;22467;-81
2022/05/06 10:05:18;;;;;;;;;;;;;;;26.90;33.11;101095.89;85565;1339;22543;-80
2022/05/06 10:07:25;;;;;;;;;;;;;;;26.62;33.04;101098.56;85575;1336;23282;-75
2022/05/06 10:09:32;;;;;;;;;;;;;;;26.25;33.50;101098.80;85573;1338;22493;-81
2022/05/06 10:11:38;;;;;;;;;;;;;;;26.04;34.06;101100.20;85573;1340;22492;-80
2022/05/06 10:13:44;;;;;;;;;;;;;;;25.93;34.56;101102.28;85565;1338;22626;-80
2022/05/06 10:15:49;;;;;;;;;;;;;;;25.83;34.66;101099.11;85576;1341;23090;-79
2022/05/06 10:17:55;;;;;;;;;;;;;;;25.64;34.96;101096.17;85577;1339;23323;-79
2022/05/06 10:19:59;;;;;;;;;;;;;;;25.53;35.56;101101.59;85563;1340;23169;-79
2022/05/06 10:22:04;;;;;;;;;;;;;;;25.42;35.67;101103.26;85550;1339;22521;-76
2022/05/06 10:24:15;;;;;;;;;;;;;;;25.39;35.99;101105.02;85569;1336;22552;-76
2022/05/06 10:26:45;;;;;;;;;;;;;;;25.34;35.96;101105.65;85583;1339;22512;-76
2022/05/06 10:34:09;;;;;;;;;;;;;;;25.17;36.32;101108.57;85497;1338;23123;-75
2022/05/06 10:36:31;;;;;;;;;;;;;;;25.04;36.48;101111.09;85538;1341;23066;-76
2022/05/06 10:38:36;;;;;;;;;;;;;;;24.83;36.82;101107.73;85574;1341;22510;-75
2022/05/06 10:40:41;;;;;;;;;;;;;;;24.81;36.83;101110.56;85411;1339;23268;-76
2022/05/06 10:42:49;;;;;;;;;;;;;;;24.81;37.40;101104.69;85561;1340;22586;-75
2022/05/06 10:44:54;;;;;;;;;;;;;;;24.98;37.53;101103.77;85564;1338;22474;-75
2022/05/06 10:47:45;;;;;;;;;;;;;;;25.20;37.51;101103.96;85574;1341;22494;-75
2022/05/06 10:49:53;;;;;;;;;;;;;;;25.46;36.92;101098.16;85572;1341;22518;-80
2022/05/06 10:52:13;;;;;;;;;;;;;;;25.70;37.07;101098.45;85583;1338;22507;-75
2022/05/06 10:54:17;;;;;;;;;;;;;;;26.10;36.43;101096.79;85569;1339;22486;-75
2022/05/06 10:56:25;;;;;;;;;;;;;;;26.22;35.01;101092.64;85567;1337;22527;-75
2022/05/06 10:58:30;;;;;;;;;;;;;;;26.20;35.02;101089.41;85583;1339;22554;-79
2022/05/06 11:00:42;;;;;;;;;;;;;;;26.11;34.59;101091.20;85571;1336;23444;-79
2022/05/06 11:02:46;;;;;;;;;;;;;;;25.87;34.35;101089.95;85597;1337;22434;-79
2022/05/06 11:04:51;;;;;;;;;;;;;;;25.68;34.44;101094.71;85586;1340;22452;-78
2022/05/06 11:07:11;;;;;;;;;;;;;;;25.54;34.61;101099.39;85579;1339;22587;-79
2022/05/06 11:09:31;;;;;;;;;;;;;;;25.34;35.04;101104.73;85570;1340;22540;-75
2022/05/06 11:11:36;;;;;;;;;;;;;;;25.22;35.48;101107.40;85575;1339;22500;-77
2022/05/06 11:13:45;;;;;;;;;;;;;;;25.12;35.55;101103.27;85587;1336;22516;-80
2022/05/06 11:15:52;;;;;;;;;;;;;;;24.99;36.01;101101.17;85586;1341;22631;-79
2022/05/06 11:17:58;;;;;;;;;;;;;;;24.94;36.35;101098.02;85579;1340;23072;-75
2022/05/06 11:20:16;;;;;;;;;;;;;;;24.93;36.18;101097.23;85597;1341;23257;-75
2022/05/06 11:22:23;;;;;;;;;;;;;;;24.99;35.99;101099.05;85582;1339;23036;-75
2022/05/06 11:24:35;;;;;;;;;;;;;;;24.99;36.02;101097.21;85523;1341;22516;-75
2022/05/06 11:26:41;;;;;;;;;;;;;;;24.95;36.01;101098.13;85575;1336;23131;-75
2022/05/06 11:29:02;;;;;;;;;;;;;;;24.93;36.12;101094.91;85436;1339;23189;-79
2022/05/06 11:31:07;;;;;;;;;;;;;;;24.93;36.13;101094.34;85582;1339;22497;-79
2022/05/06 11:33:20;;;;;;;;;;;;;;;24.89;36.03;101095.23;85592;1338;22688;-74
2022/05/06 11:35:36;;;;;;;;;;;;;;;24.88;35.72;101099.23;85595;1336;22613;-75
2022/05/06 11:37:44;;;;;;;;;;;;;;;24.89;35.56;101095.39;85584;1336;22592;-75
2022/05/06 11:39:49;;;;;;;;;;;;;;;24.97;35.69;101091.89;85472;1341;22500;-75
2022/05/06 11:41:54;;;;;;;;;;;;;;;25.09;36.30;101090.80;85572;1340;23119;-75